createdAt,value
2023-03-22T00:00:30.365Z,7.20
2023-03-22T00:03:17.939Z,7.20
2023-03-22T00:05:46.099Z,7.10
2023-03-22T00:08:13.926Z,6.90
2023-03-22T00:10:42.212Z,6.80
2023-03-22T00:13:11.610Z,6.80
2023-03-22T00:15:39.565Z,6.70
2023-03-22T00:18:07.140Z,6.60
2023-03-22T00:20:37.695Z,6.50
2023-03-22T00:23:05.790Z,6.50
2023-03-22T00:25:33.271Z,6.40
2023-03-22T00:28:00.486Z,6.60
2023-03-22T00:30:28.116Z,6.50
2023-03-22T00:32:55.353Z,6.50
2023-03-22T00:35:22.869Z,6.50
2023-03-22T00:37:51.717Z,6.50
2023-03-22T00:40:19.487Z,6.60
2023-03-22T00:42:46.856Z,6.60
2023-03-22T00:45:14.476Z,6.60
2023-03-22T00:47:41.947Z,6.60
2023-03-22T00:50:10.011Z,6.60
2023-03-22T00:52:37.306Z,6.70
2023-03-22T00:55:05.535Z,6.80
2023-03-22T00:57:33.558Z,6.90
2023-03-22T01:00:08.215Z,7.00
2023-03-22T01:02:35.547Z,7.10
2023-03-22T01:05:03.453Z,7.10
2023-03-22T01:07:31.072Z,7.20
2023-03-22T01:09:58.663Z,7.20
2023-03-22T01:12:25.989Z,7.20
2023-03-22T01:14:53.432Z,7.00
2023-03-22T01:17:20.850Z,7.00
2023-03-22T01:19:48.452Z,6.90
2023-03-22T01:22:15.844Z,6.80
2023-03-22T01:24:43.649Z,6.70
2023-03-22T01:27:11.568Z,6.70
2023-03-22T01:29:39.035Z,6.60
2023-03-22T01:32:06.570Z,6.60
2023-03-22T01:34:34.127Z,6.60
2023-03-22T01:37:02.891Z,6.60
2023-03-22T01:39:32.240Z,7.10
2023-03-22T01:42:03.756Z,6.70
2023-03-22T01:44:31.818Z,6.70
2023-03-22T01:47:01.382Z,6.70
2023-03-22T01:49:35.891Z,6.70
2023-03-22T01:52:11.798Z,6.70
2023-03-22T01:54:53.487Z,6.70
2023-03-22T01:57:33.581Z,6.90
2023-03-22T02:00:04.128Z,6.70
2023-03-22T02:03:11.349Z,6.80
2023-03-22T02:05:44.850Z,6.70
2023-03-22T02:08:15.144Z,6.70
2023-03-22T02:11:03.278Z,6.70
2023-03-22T02:13:53.840Z,6.80
2023-03-22T02:17:09.196Z,6.70
2023-03-22T02:20:13.907Z,6.80
2023-03-22T02:22:41.848Z,6.80
2023-03-22T02:25:30.417Z,6.80
2023-03-22T02:28:23.921Z,6.80
2023-03-22T02:31:19.971Z,6.90
2023-03-22T02:34:15.676Z,6.90
2023-03-22T02:37:18.010Z,6.80
2023-03-22T02:39:54.113Z,6.90
2023-03-22T02:42:40.307Z,6.90
2023-03-22T02:45:16.259Z,6.90
2023-03-22T02:48:12.999Z,6.90
2023-03-22T02:50:56.770Z,6.90
2023-03-22T02:53:42.994Z,7.00
2023-03-22T02:56:26.206Z,7.00
2023-03-22T02:59:04.515Z,7.10
2023-03-22T03:01:43.927Z,7.00
2023-03-22T03:04:19.836Z,7.10
2023-03-22T03:06:51.969Z,7.00
2023-03-22T03:09:20.670Z,7.00
2023-03-22T03:11:51.354Z,7.20
2023-03-22T03:14:23.202Z,7.10
2023-03-22T03:17:02.943Z,7.10
2023-03-22T03:20:12.251Z,7.10
2023-03-22T03:23:28.806Z,7.10
2023-03-22T03:26:36.995Z,7.20
2023-03-22T03:29:17.236Z,7.10
2023-03-22T03:32:17.479Z,7.30
2023-03-22T03:34:49.664Z,7.30
2023-03-22T03:37:24.816Z,7.30
2023-03-22T03:40:09.092Z,7.20
2023-03-22T03:42:41.975Z,7.20
2023-03-22T03:45:10.626Z,7.10
2023-03-22T03:47:39.056Z,7.20
2023-03-22T03:50:07.673Z,7.20
2023-03-22T03:52:34.974Z,7.20
2023-03-22T03:55:02.546Z,7.20
2023-03-22T03:57:33.481Z,7.10
2023-03-22T04:00:01.318Z,7.20
2023-03-22T04:02:47.215Z,7.30
2023-03-22T04:05:34.998Z,7.10
2023-03-22T04:08:02.323Z,7.20
2023-03-22T04:10:30.392Z,7.10
2023-03-22T04:12:57.826Z,7.10
2023-03-22T04:15:26.086Z,7.10
2023-03-22T04:17:57.333Z,7.20
2023-03-22T04:20:28.108Z,7.20
2023-03-22T04:22:55.768Z,7.20
2023-03-22T04:25:23.380Z,7.20
2023-03-22T04:28:00.664Z,7.20
2023-03-22T04:30:30.907Z,7.20
2023-03-22T04:33:01.424Z,7.20
2023-03-22T04:35:57.404Z,7.10
2023-03-22T04:38:31.338Z,7.10
2023-03-22T04:40:58.961Z,7.20
2023-03-22T04:43:39.614Z,7.10
2023-03-22T04:46:12.881Z,7.20
2023-03-22T04:48:48.205Z,7.20
2023-03-22T04:51:17.644Z,7.20
2023-03-22T04:54:11.364Z,7.10
2023-03-22T04:56:42.176Z,7.20
2023-03-22T04:59:10.990Z,7.20
2023-03-22T05:01:40.766Z,7.10
2023-03-22T05:04:13.077Z,7.20
2023-03-22T05:06:41.544Z,7.10
2023-03-22T05:09:16.547Z,7.20
2023-03-22T05:11:44.552Z,7.20
2023-03-22T05:14:24.792Z,7.20
2023-03-22T05:16:52.865Z,7.20
2023-03-22T05:19:22.531Z,7.10
2023-03-22T05:21:58.229Z,7.10
2023-03-22T05:24:37.143Z,7.20
2023-03-22T05:27:05.926Z,7.10
2023-03-22T05:29:37.072Z,7.20
2023-03-22T05:32:18.421Z,7.10
2023-03-22T05:34:48.522Z,7.10
2023-03-22T05:37:24.552Z,7.10
2023-03-22T05:39:55.315Z,7.30
2023-03-22T05:42:28.868Z,7.30
2023-03-22T05:44:57.294Z,7.30
2023-03-22T05:47:24.969Z,7.40
2023-03-22T05:49:58.907Z,7.40
2023-03-22T05:52:28.441Z,7.50
2023-03-22T05:55:22.395Z,7.70
2023-03-22T05:57:54.873Z,7.60
2023-03-22T06:00:23.931Z,7.50
2023-03-22T06:03:18.465Z,7.50
2023-03-22T06:05:54.856Z,7.50
2023-03-22T06:08:31.788Z,7.60
2023-03-22T06:11:00.459Z,7.60
2023-03-22T06:13:28.217Z,7.60
2023-03-22T06:15:56.115Z,7.70
2023-03-22T06:18:26.467Z,7.70
2023-03-22T06:21:02.271Z,7.70
2023-03-22T06:23:30.101Z,7.80
2023-03-22T06:25:57.515Z,7.90
2023-03-22T06:28:29.849Z,7.90
2023-03-22T06:30:58.560Z,8.00
2023-03-22T06:33:45.536Z,8.10
2023-03-22T06:36:27.371Z,8.10
2023-03-22T06:39:05.302Z,8.20
2023-03-22T06:41:33.492Z,8.20
2023-03-22T06:44:02.983Z,8.20
2023-03-22T06:46:44.569Z,8.30
2023-03-22T06:49:29.481Z,8.30
2023-03-22T06:51:58.508Z,8.30
2023-03-22T06:54:26.241Z,8.40
2023-03-22T06:56:53.920Z,8.60
2023-03-22T06:59:22.013Z,8.70
2023-03-22T07:01:49.672Z,8.70
2023-03-22T07:04:17.499Z,8.70
2023-03-22T07:06:47.588Z,8.90
2023-03-22T07:09:15.484Z,8.90
2023-03-22T07:11:42.951Z,8.80
2023-03-22T07:14:10.831Z,8.90
2023-03-22T07:17:16.645Z,8.80
2023-03-22T07:19:45.154Z,9.10
2023-03-22T07:22:13.695Z,9.20
2023-03-22T07:24:55.618Z,9.20
2023-03-22T07:27:24.695Z,9.30
2023-03-22T07:29:52.766Z,9.30
2023-03-22T07:32:20.721Z,9.30
2023-03-22T07:35:02.186Z,8.60
2023-03-22T07:37:29.512Z,9.50
2023-03-22T07:39:57.128Z,9.50
2023-03-22T07:42:28.082Z,9.60
2023-03-22T07:45:14.518Z,9.60
2023-03-22T07:47:45.367Z,9.60
2023-03-22T07:50:19.539Z,9.60
2023-03-22T07:52:51.537Z,9.60
2023-03-22T07:55:19.588Z,9.60
2023-03-22T07:57:47.254Z,9.60
2023-03-22T08:00:16.171Z,9.60
2023-03-22T08:02:46.498Z,9.60
2023-03-22T08:05:30.520Z,9.60
2023-03-22T08:08:02.230Z,9.60
2023-03-22T08:10:31.790Z,9.60
2023-03-22T08:12:59.470Z,9.60
2023-03-22T08:15:28.270Z,9.70
2023-03-22T08:17:58.180Z,9.70
2023-03-22T08:20:34.517Z,9.70
2023-03-22T08:23:11.450Z,9.80
2023-03-22T08:25:57.400Z,9.80
2023-03-22T08:28:24.799Z,9.80
2023-03-22T08:30:52.547Z,9.80
2023-03-22T08:33:23.850Z,9.80
2023-03-22T08:35:52.896Z,9.80
2023-03-22T08:38:21.165Z,9.80
2023-03-22T08:40:53.606Z,9.80
2023-03-22T08:43:24.388Z,9.80
2023-03-22T08:45:53.068Z,9.80
2023-03-22T08:48:21.887Z,9.80
2023-03-22T08:51:08.162Z,9.80
2023-03-22T08:53:58.901Z,9.90
2023-03-22T08:56:45.581Z,10.00
2023-03-22T08:59:42.147Z,10.00
2023-03-22T09:02:30.310Z,10.00
2023-03-22T09:04:58.895Z,10.00
2023-03-22T09:07:28.351Z,10.10
2023-03-22T09:10:05.194Z,10.10
2023-03-22T09:12:35.392Z,10.30
2023-03-22T09:15:03.318Z,10.40
2023-03-22T09:17:32.042Z,10.60
2023-03-22T09:20:11.413Z,10.50
2023-03-22T09:22:42.727Z,10.60
2023-03-22T09:25:13.006Z,10.60
2023-03-22T09:27:43.724Z,10.70
2023-03-22T09:30:11.936Z,10.70
2023-03-22T09:35:09.040Z,10.80
2023-03-22T09:37:53.410Z,10.80
2023-03-22T09:40:25.328Z,10.80
2023-03-22T09:42:57.714Z,10.90
2023-03-22T09:45:41.948Z,10.90
2023-03-22T09:48:36.587Z,10.90
2023-03-22T09:51:06.138Z,11.00
2023-03-22T09:53:34.246Z,11.00
2023-03-22T09:56:04.690Z,11.10
2023-03-22T09:58:43.168Z,11.20
2023-03-22T10:01:10.830Z,11.20
2023-03-22T10:03:47.648Z,11.10
2023-03-22T10:06:19.148Z,11.10
2023-03-22T10:08:46.718Z,11.20
2023-03-22T10:11:51.536Z,11.30
2023-03-22T10:14:34.369Z,11.40
2023-03-22T10:17:07.160Z,11.40
2023-03-22T10:19:49.930Z,11.40
2023-03-22T10:22:19.616Z,11.30
2023-03-22T10:24:51.092Z,11.30
2023-03-22T10:27:20.697Z,11.40
2023-03-22T10:30:22.978Z,11.50
2023-03-22T10:33:04.079Z,11.50
2023-03-22T10:35:32.354Z,11.50
2023-03-22T10:38:03.917Z,11.50
2023-03-22T10:40:36.490Z,11.50
2023-03-22T10:43:10.241Z,11.50
2023-03-22T10:45:38.531Z,11.50
2023-03-22T10:48:14.984Z,11.80
2023-03-22T10:50:45.738Z,12.30
2023-03-22T10:53:21.297Z,12.90
2023-03-22T10:55:48.935Z,13.50
2023-03-22T10:58:19.376Z,14.30
2023-03-22T11:01:14.778Z,14.50
2023-03-22T11:03:44.761Z,15.00
2023-03-22T11:06:15.193Z,15.10
2023-03-22T11:08:45.834Z,14.90
2023-03-22T11:11:38.940Z,14.70
2023-03-22T11:14:39.691Z,14.20
2023-03-22T11:17:07.142Z,13.80
2023-03-22T11:19:37.357Z,13.60
2023-03-22T11:22:27.069Z,13.80
2023-03-22T11:24:57.476Z,14.80
2023-03-22T11:27:33.626Z,14.40
2023-03-22T11:30:23.351Z,14.40
2023-03-22T11:33:17.076Z,13.70
2023-03-22T11:35:47.214Z,13.90
2023-03-22T11:38:37.049Z,13.90
2023-03-22T11:41:25.145Z,13.70
2023-03-22T11:44:01.869Z,14.10
2023-03-22T11:46:30.498Z,14.40
2023-03-22T11:49:06.017Z,14.20
2023-03-22T11:51:39.302Z,14.70
2023-03-22T11:54:30.817Z,14.50
2023-03-22T11:57:01.538Z,14.40
2023-03-22T11:59:38.195Z,14.50
2023-03-22T12:02:27.049Z,14.40
2023-03-22T12:05:20.888Z,14.80
2023-03-22T12:07:54.068Z,14.60
2023-03-22T12:10:26.716Z,14.70
2023-03-22T12:12:59.800Z,14.30
2023-03-22T12:15:31.993Z,14.10
2023-03-22T12:18:08.508Z,14.50
2023-03-22T12:20:48.475Z,14.20
2023-03-22T12:23:19.363Z,14.10
2023-03-22T12:25:58.630Z,13.70
2023-03-22T12:28:41.140Z,14.40
2023-03-22T12:31:19.713Z,15.10
2023-03-22T12:34:00.160Z,14.30
2023-03-22T12:36:35.775Z,14.70
2023-03-22T12:39:06.583Z,14.40
2023-03-22T12:41:36.040Z,14.10
2023-03-22T12:44:32.507Z,14.70
2023-03-22T12:47:13.086Z,14.00
2023-03-22T12:49:58.778Z,14.20
2023-03-22T12:52:45.686Z,14.80
2023-03-22T12:55:36.814Z,14.60
2023-03-22T12:58:09.551Z,15.20
2023-03-22T13:00:41.070Z,15.00
2023-03-22T13:03:21.051Z,15.40
2023-03-22T13:05:50.342Z,14.60
2023-03-22T13:08:22.615Z,14.90
2023-03-22T13:11:03.936Z,14.90
2023-03-22T13:13:42.519Z,15.10
2023-03-22T13:16:09.870Z,14.70
2023-03-22T13:18:40.721Z,15.40
2023-03-22T13:21:14.599Z,14.90
2023-03-22T13:24:02.601Z,15.50
2023-03-22T13:26:59.159Z,15.10
2023-03-22T13:29:38.293Z,14.60
2023-03-22T13:32:13.794Z,15.70
2023-03-22T13:34:48.330Z,14.50
2023-03-22T13:37:31.294Z,14.20
2023-03-22T13:40:02.300Z,14.50
2023-03-22T13:42:41.298Z,14.40
2023-03-22T13:45:31.546Z,15.80
2023-03-22T13:48:04.915Z,15.20
2023-03-22T13:50:34.557Z,15.70
2023-03-22T13:53:14.865Z,15.90
2023-03-22T13:55:51.989Z,15.90
2023-03-22T13:58:38.872Z,15.70
2023-03-22T14:01:23.060Z,15.40
2023-03-22T14:03:51.365Z,14.80
2023-03-22T14:06:32.006Z,15.60
2023-03-22T14:09:06.251Z,14.90
2023-03-22T14:11:45.466Z,15.30
2023-03-22T14:14:36.676Z,15.90
2023-03-22T14:17:17.128Z,15.20
2023-03-22T14:19:45.002Z,15.30
